Time;durP1;ratioP1;P1;durP2;ratioP2;P2;SDS_P1;SDS_P2;PMS_P1;PMS_P2;Temp;Humidity;BMP_temperature;BMP_pressure;BME280_temperature;BME280_humidity;BME280_pressure;Samples;Min_cycle;Max_cycle;Signal;HPM_P1;HPM_P2
2022/11/27 00:02:25;;;;;;;18.30;9.80;;;;;;;2.21;91.88;99692.71;103300;1291;22496;-75
2022/11/27 00:04:52;;;;;;;20.60;11.70;;;;;;;2.25;91.89;99698.21;103241;1288;138933;-75
2022/11/27 00:07:19;;;;;;;19.80;11.20;;;;;;;2.29;92.30;99699.27;103097;1298;25346;-75
2022/11/27 00:09:46;;;;;;;23.60;11.40;;;;;;;2.31;91.95;99696.98;103139;1312;22460;-75
2022/11/27 00:12:13;;;;;;;25.00;11.90;;;;;;;2.34;91.79;99694.79;103093;1309;138118;-75
2022/11/27 00:14:40;;;;;;;19.90;10.70;;;;;;;2.36;91.70;99693.69;103404;1288;22682;-75
2022/11/27 00:17:07;;;;;;;19.70;11.90;;;;;;;2.38;92.07;99693.83;103063;1310;138165;-74
2022/11/27 00:19:34;;;;;;;21.30;11.60;;;;;;;2.39;92.11;99693.13;103293;1303;22479;-75
2022/11/27 00:22:01;;;;;;;18.80;11.10;;;;;;;2.41;92.25;99693.10;103108;1310;22505;-75
2022/11/27 00:24:31;;;;;;;20.40;11.50;;;;;;;2.42;92.10;99696.20;103344;1285;138867;-75
2022/11/27 00:26:58;;;;;;;24.80;13.10;;;;;;;2.43;92.05;99698.13;103127;1296;22659;-75
2022/11/27 00:29:27;;;;;;;26.60;14.70;;;;;;;2.42;91.96;99693.14;102994;1279;138069;-74
2022/11/27 00:31:55;;;;;;;28.50;14.40;;;;;;;2.43;92.03;99693.79;103440;1313;24218;-75
2022/11/27 00:34:22;;;;;;;30.50;15.30;;;;;;;2.43;92.02;99690.93;102995;1294;138513;-74
2022/11/27 00:36:49;;;;;;;31.20;15.90;;;;;;;2.43;92.32;99692.38;103401;1286;22499;-75
2022/11/27 00:39:16;;;;;;;28.10;14.90;;;;;;;2.42;91.80;99692.14;103091;1292;22485;-75
2022/11/27 00:41:43;;;;;;;29.90;15.00;;;;;;;2.40;91.71;99694.79;103084;1310;138754;-75
2022/11/27 00:44:12;;;;;;;31.40;14.90;;;;;;;2.36;91.60;99690.40;103354;1310;22952;-75
2022/11/27 00:46:40;;;;;;;29.30;14.20;;;;;;;2.33;91.81;99688.77;103255;1304;139469;-75
2022/11/27 00:49:11;;;;;;;27.30;14.00;;;;;;;2.32;91.90;99691.55;103512;1281;24302;-75
2022/11/27 00:51:39;;;;;;;31.30;15.30;;;;;;;2.31;91.89;99690.06;103320;1297;22484;-74
2022/11/27 00:54:07;;;;;;;35.80;16.40;;;;;;;2.30;92.10;99692.31;103207;1305;138198;-75
2022/11/27 00:56:36;;;;;;;32.70;16.80;;;;;;;2.30;92.21;99689.83;103449;1291;25258;-75
2022/11/27 00:59:05;;;;;;;40.10;18.80;;;;;;;2.28;92.12;99689.28;103337;1297;138043;-75
2022/11/27 01:01:39;;;;;;;34.80;17.60;;;;;;;2.25;92.03;99686.55;103509;1285;22914;-75
2022/11/27 01:04:10;;;;;;;35.20;17.20;;;;;;;2.23;92.26;99681.38;103471;1288;23039;-75
2022/11/27 01:06:37;;;;;;;34.10;18.10;;;;;;;2.23;92.61;99680.87;103321;1297;23138;-75
2022/11/27 01:09:06;;;;;;;38.70;17.20;;;;;;;2.23;92.47;99678.67;103121;1297;22507;-75
2022/11/27 01:11:34;;;;;;;35.40;17.80;;;;;;;2.23;92.51;99679.19;103007;1310;138228;-75
2022/11/27 01:14:06;;;;;;;33.90;16.10;;;;;;;2.23;92.49;99679.21;103372;1286;24085;-75
2022/11/27 01:16:33;;;;;;;32.50;15.70;;;;;;;2.25;92.87;99674.73;103277;1305;138331;-75
2022/11/27 01:19:01;;;;;;;37.40;15.20;;;;;;;2.25;92.69;99676.11;103101;1302;22505;-75
2022/11/27 01:21:31;;;;;;;34.50;16.10;;;;;;;2.24;92.32;99681.64;103439;1285;24198;-75
2022/11/27 01:23:58;;;;;;;28.80;15.10;;;;;;;2.22;91.98;99681.47;103383;1279;138091;-75
2022/11/27 01:26:26;;;;;;;34.00;15.80;;;;;;;2.18;92.03;99684.08;103270;1286;22468;-75
2022/11/27 01:28:54;;;;;;;32.50;15.30;;;;;;;2.15;92.07;99687.23;103268;1286;138285;-75
2022/11/27 01:31:24;;;;;;;32.60;15.40;;;;;;;2.13;92.21;99686.39;103388;1286;22482;-75
2022/11/27 01:33:57;;;;;;;30.00;14.60;;;;;;;2.10;92.13;99683.66;103295;1284;22955;-75
2022/11/27 01:36:24;;;;;;;33.60;15.60;;;;;;;2.07;92.28;99685.23;103183;1288;138238;-75
2022/11/27 01:38:52;;;;;;;27.30;13.10;;;;;;;2.04;92.22;99682.42;103360;1305;24305;-75
2022/11/27 01:41:26;;;;;;;29.90;15.20;;;;;;;1.99;92.01;99676.65;103247;1286;138220;-75
2022/11/27 01:43:56;;;;;;;31.20;15.30;;;;;;;1.97;92.11;99672.98;103264;1279;23917;-75
2022/11/27 01:46:38;;;;;;;27.80;12.90;;;;;;;1.95;92.07;99675.69;103232;1286;138388;-74
2022/11/27 01:49:10;;;;;;;23.40;12.40;;;;;;;1.91;91.81;99672.95;103550;1288;22494;-75
2022/11/27 01:51:46;;;;;;;25.60;12.80;;;;;;;1.86;92.03;99671.94;103450;1289;25358;-75
2022/11/27 01:54:16;;;;;;;23.90;12.70;;;;;;;1.83;92.06;99669.91;103197;1286;138520;-75
2022/11/27 01:56:47;;;;;;;25.60;12.20;;;;;;;1.82;92.14;99672.92;103946;1298;25432;-75
2022/11/27 01:59:17;;;;;;;23.90;12.10;;;;;;;1.81;92.15;99668.41;103799;1286;138426;-75
2022/11/27 02:01:47;;;;;;;23.40;12.00;;;;;;;1.81;92.32;99672.91;103517;1281;23925;-75
2022/11/27 02:04:14;;;;;;;22.40;12.50;;;;;;;1.80;92.35;99674.94;103220;1289;138368;-75
2022/11/27 02:06:41;;;;;;;25.40;12.20;;;;;;;1.80;92.69;99677.83;103371;1291;22871;-75
2022/11/27 02:09:08;;;;;;;25.40;13.70;;;;;;;1.81;92.65;99675.03;103225;1286;22571;-75
2022/11/27 02:11:57;;;;;;;24.70;12.00;;;;;;;1.82;92.78;99671.45;103419;1310;138100;-75
2022/11/27 02:14:30;;;;;;;27.30;12.50;;;;;;;1.83;92.55;99673.70;103506;1294;24234;-75
2022/11/27 02:17:02;;;;;;;21.10;11.60;;;;;;;1.82;92.18;99670.64;103006;1295;138468;-75
2022/11/27 02:20:00;;;;;;;23.90;12.50;;;;;;;1.79;91.90;99674.70;103448;1287;22481;-75
2022/11/27 02:22:54;;;;;;;26.90;12.80;;;;;;;1.78;92.16;99674.97;103076;1292;138251;-75
2022/11/27 02:25:32;;;;;;;25.90;12.40;;;;;;;1.76;92.19;99675.00;103400;1298;25316;-75
2022/11/27 02:28:24;;;;;;;24.80;12.80;;;;;;;1.78;92.57;99675.01;103742;1279;24237;-75
2022/11/27 02:31:01;;;;;;;26.80;12.60;;;;;;;1.81;92.50;99679.13;103213;1291;25233;-75
2022/11/27 02:33:32;;;;;;;24.70;12.10;;;;;;;1.84;92.37;99678.13;103510;1310;22486;-75
2022/11/27 02:36:07;;;;;;;23.00;12.30;;;;;;;1.87;92.95;99679.34;103114;1278;138549;-75
2022/11/27 02:38:45;;;;;;;22.20;12.50;;;;;;;1.90;92.68;99679.55;103693;1295;22976;-75
2022/11/27 02:41:21;;;;;;;23.90;11.50;;;;;;;1.93;92.49;99684.17;103231;1294;138057;-75
2022/11/27 02:43:50;;;;;;;25.70;12.90;;;;;;;1.95;92.36;99685.05;103167;1295;24253;-75
2022/11/27 02:46:19;;;;;;;24.10;12.40;;;;;;;1.97;92.34;99691.58;103777;1286;22479;-75
2022/11/27 02:48:49;;;;;;;25.10;12.20;;;;;;;1.99;92.05;99695.91;103241;1289;22493;-74
2022/11/27 02:51:21;;;;;;;25.60;12.40;;;;;;;1.99;91.95;99698.77;103755;1306;22740;-75
2022/11/27 02:53:59;;;;;;;26.00;12.60;;;;;;;1.99;91.98;99698.77;103277;1302;138610;-75
2022/11/27 02:56:30;;;;;;;26.90;13.60;;;;;;;2.02;92.22;99702.39;103129;1305;22840;-74
2022/11/27 02:59:01;;;;;;;25.20;12.30;;;;;;;2.02;92.00;99706.85;102995;1295;138293;-75
2022/11/27 03:01:33;;;;;;;23.30;11.80;;;;;;;1.99;91.84;99708.42;103748;1295;22478;-75
2022/11/27 03:04:05;;;;;;;29.20;12.70;;;;;;;1.98;92.40;99707.27;103201;1312;23321;-75
2022/11/27 03:06:42;;;;;;;29.90;13.20;;;;;;;2.00;92.48;99705.08;103004;1288;139468;-75
2022/11/27 03:09:15;;;;;;;23.80;12.20;;;;;;;1.99;92.47;99705.19;103183;1312;22631;-75
2022/11/27 03:11:43;;;;;;;25.40;13.40;;;;;;;2.01;92.64;99707.11;103361;1301;138870;-75
2022/11/27 03:14:12;;;;;;;28.10;13.50;;;;;;;2.01;92.65;99704.23;103326;1298;22589;-74
2022/11/27 03:16:45;;;;;;;24.40;12.90;;;;;;;2.04;92.67;99703.81;103018;1303;138277;-74
2022/11/27 03:19:41;;;;;;;24.70;12.50;;;;;;;2.06;92.68;99707.17;103182;1288;22487;-75
2022/11/27 03:22:09;;;;;;;25.40;12.80;;;;;;;2.07;92.53;99708.13;103354;1298;22624;-75
2022/11/27 03:24:36;;;;;;;28.60;13.60;;;;;;;2.10;92.81;99709.59;103065;1296;137946;-75
2022/11/27 03:27:04;;;;;;;24.00;12.30;;;;;;;2.14;93.00;99706.01;103144;1289;22488;-75
2022/11/27 03:29:39;;;;;;;24.20;13.10;;;;;;;2.17;93.03;99702.30;103278;1311;139895;-75
2022/11/27 03:32:06;;;;;;;25.00;13.40;;;;;;;2.18;92.58;99699.11;103504;1278;24112;-75
2022/11/27 03:34:34;;;;;;;22.80;11.80;;;;;;;2.19;92.46;99700.98;102983;1310;138711;-75
2022/11/27 03:37:01;;;;;;;21.70;11.80;;;;;;;2.18;92.37;99701.42;103174;1288;25333;-75
2022/11/27 03:39:29;;;;;;;23.40;11.70;;;;;;;2.18;92.32;99697.13;103328;1286;22492;-75
2022/11/27 03:42:18;;;;;;;25.40;12.10;;;;;;;2.19;92.30;99699.15;103011;1310;138068;-75
2022/11/27 03:44:53;;;;;;;24.00;11.80;;;;;;;2.18;91.60;99703.77;103241;1310;25423;-75
2022/11/27 03:47:42;;;;;;;22.10;11.50;;;;;;;2.12;91.19;99708.15;103173;1298;138088;-75
2022/11/27 03:50:28;;;;;;;21.90;11.40;;;;;;;2.10;91.69;99708.70;103081;1302;22472;-75
2022/11/27 03:53:16;;;;;;;23.40;10.50;;;;;;;2.12;92.25;99708.29;102947;1298;139654;-75
2022/11/27 03:56:09;;;;;;;24.50;11.60;;;;;;;2.15;92.34;99712.46;103238;1291;25065;-75
2022/11/27 03:58:51;;;;;;;20.40;10.90;;;;;;;2.17;92.24;99709.65;102983;1298;139964;-74
2022/11/27 04:01:21;;;;;;;23.70;10.70;;;;;;;2.18;92.32;99707.91;103324;1283;22595;-75
2022/11/27 04:03:48;;;;;;;21.50;11.10;;;;;;;2.19;92.59;99707.64;103240;1310;23103;-75
2022/11/27 04:06:15;;;;;;;25.70;11.90;;;;;;;2.20;92.86;99705.73;102889;1295;138154;-75
2022/11/27 04:08:45;;;;;;;25.10;12.10;;;;;;;2.22;92.92;99708.38;103008;1286;22602;-74
2022/11/27 04:11:13;;;;;;;27.30;12.90;;;;;;;2.22;92.87;99708.01;102926;1295;138360;-75
2022/11/27 04:13:40;;;;;;;21.40;11.90;;;;;;;2.22;92.81;99703.30;103509;1291;25250;-75
2022/11/27 04:16:07;;;;;;;26.50;13.10;;;;;;;2.22;93.05;99704.30;103139;1296;25322;-75
2022/11/27 04:18:34;;;;;;;25.60;12.10;;;;;;;2.22;93.11;99706.20;103013;1302;138141;-75
2022/11/27 04:21:01;;;;;;;21.40;12.30;;;;;;;2.23;93.12;99707.31;103356;1286;22535;-74
2022/11/27 04:23:28;;;;;;;28.80;12.80;;;;;;;2.24;93.17;99706.19;103084;1310;138142;-75
2022/11/27 04:25:55;;;;;;;22.50;11.90;;;;;;;2.23;92.89;99710.54;103152;1312;22481;-75
2022/11/27 04:28:22;;;;;;;26.70;12.40;;;;;;;2.24;92.97;99715.84;103150;1287;138261;-75
2022/11/27 04:30:53;;;;;;;27.70;13.90;;;;;;;2.26;93.40;99719.91;103123;1313;24287;-75
2022/11/27 04:33:21;;;;;;;28.20;12.80;;;;;;;2.29;93.47;99721.98;103490;1287;22936;-75
2022/11/27 04:35:49;;;;;;;27.30;15.20;;;;;;;2.31;93.54;99719.58;103274;1289;138094;-75
2022/11/27 04:38:17;;;;;;;29.10;15.60;;;;;;;2.34;93.57;99720.02;103156;1295;23218;-75
2022/11/27 04:40:44;;;;;;;28.00;14.10;;;;;;;2.35;93.03;99718.55;103211;1286;139100;-74
2022/11/27 04:43:11;;;;;;;26.70;13.50;;;;;;;2.34;93.00;99715.69;103123;1298;23919;-75
2022/11/27 04:45:40;;;;;;;26.90;14.40;;;;;;;2.33;92.77;99711.35;103101;1305;22488;-75
2022/11/27 04:48:06;;;;;;;30.10;15.30;;;;;;;2.32;92.94;99714.14;103077;1294;138474;-74
2022/11/27 04:50:33;;;;;;;29.40;15.30;;;;;;;2.32;93.11;99715.00;103199;1282;22490;-75
2022/11/27 04:53:00;;;;;;;26.20;15.60;;;;;;;2.32;93.18;99708.19;103209;1296;138860;-75
2022/11/27 04:55:27;;;;;;;36.10;16.80;;;;;;;2.33;93.31;99705.27;103320;1291;22528;-75
2022/11/27 04:57:54;;;;;;;28.60;16.00;;;;;;;2.33;92.83;99699.39;103147;1295;22855;-75
2022/11/27 05:00:21;;;;;;;28.80;15.00;;;;;;;2.32;92.85;99698.94;103019;1302;138587;-75
2022/11/27 05:02:48;;;;;;;34.50;15.80;;;;;;;2.30;92.65;99697.09;103362;1296;22660;-75
2022/11/27 05:05:16;;;;;;;28.90;14.40;;;;;;;2.27;92.45;99697.08;103272;1282;139544;-75
2022/11/27 05:07:42;;;;;;;29.40;15.30;;;;;;;2.26;92.67;99695.63;103096;1303;22479;-75
2022/11/27 05:10:10;;;;;;;26.80;13.70;;;;;;;2.25;93.06;99696.86;103293;1286;25364;-75
2022/11/27 05:12:37;;;;;;;30.20;14.20;;;;;;;2.25;92.92;99699.41;103167;1302;138216;-75
2022/11/27 05:15:05;;;;;;;25.90;13.90;;;;;;;2.23;93.07;99696.23;103149;1285;22495;-75
2022/11/27 05:17:32;;;;;;;26.60;14.40;;;;;;;2.22;93.15;99697.22;103236;1302;138721;-75
2022/11/27 05:19:58;;;;;;;31.60;14.30;;;;;;;2.21;93.16;99694.70;103210;1297;22492;-75
2022/11/27 05:22:25;;;;;;;26.60;13.90;;;;;;;2.20;93.10;99696.36;103043;1295;139141;-75
2022/11/27 05:24:52;;;;;;;25.90;13.70;;;;;;;2.19;93.18;99699.89;103153;1304;24506;-75
2022/11/27 05:27:19;;;;;;;26.90;13.30;;;;;;;2.17;92.92;99705.48;103178;1294;22482;-75
2022/11/27 05:29:46;;;;;;;23.90;11.90;;;;;;;2.13;92.66;99715.78;103009;1301;138067;-75
2022/11/27 05:32:12;;;;;;;24.40;13.00;;;;;;;2.09;92.77;99720.56;103428;1286;22522;-75
2022/11/27 05:34:39;;;;;;;26.10;13.10;;;;;;;2.10;93.15;99719.63;103398;1295;139034;-75
2022/11/27 05:37:06;;;;;;;22.60;12.80;;;;;;;2.12;93.18;99719.08;103280;1312;22910;-75
2022/11/27 05:39:33;;;;;;;24.10;12.40;;;;;;;2.15;93.14;99721.33;103447;1312;23894;-75
2022/11/27 05:42:00;;;;;;;24.20;12.80;;;;;;;2.16;93.37;99722.22;103020;1295;138917;-75
2022/11/27 05:44:27;;;;;;;24.30;13.30;;;;;;;2.17;93.39;99725.38;103118;1286;24369;-75
2022/11/27 05:46:55;;;;;;;24.50;12.80;;;;;;;2.18;93.41;99726.33;103031;1302;138253;-75
2022/11/27 05:49:22;;;;;;;28.30;14.80;;;;;;;2.20;93.47;99727.52;103338;1288;23318;-75
2022/11/27 05:51:49;;;;;;;28.40;15.00;;;;;;;2.20;93.32;99720.19;103123;1311;22582;-75
2022/11/27 05:54:16;;;;;;;33.90;16.10;;;;;;;2.19;93.51;99719.95;103424;1300;139021;-75
2022/11/27 05:56:43;;;;;;;29.50;15.90;;;;;;;2.19;93.48;99722.13;103224;1284;24357;-75
2022/11/27 05:59:11;;;;;;;28.20;13.90;;;;;;;2.18;93.47;99717.41;103050;1312;138923;-75
2022/11/27 06:01:38;;;;;;;29.10;14.90;;;;;;;2.17;93.58;99717.55;103271;1300;24341;-75
2022/11/27 06:04:05;;;;;;;31.40;16.20;;;;;;;2.15;93.38;99718.40;103145;1300;23587;-75
2022/11/27 06:06:32;;;;;;;31.60;16.20;;;;;;;2.13;93.55;99715.95;103095;1295;138522;-75
2022/11/27 06:08:59;;;;;;;30.00;16.80;;;;;;;2.11;93.58;99710.45;103292;1284;25317;-74
2022/11/27 06:11:26;;;;;;;27.10;15.20;;;;;;;2.09;93.64;99708.64;103012;1286;139022;-75
2022/11/27 06:13:53;;;;;;;27.70;16.20;;;;;;;2.09;93.64;99708.30;103105;1304;22902;-75
2022/11/27 06:16:22;;;;;;;38.80;16.60;;;;;;;2.09;93.98;99705.39;103187;1294;22598;-75
2022/11/27 06:18:52;;;;;;;31.10;17.50;;;;;;;2.11;94.15;99712.00;103302;1288;138043;-75
2022/11/27 06:21:19;;;;;;;34.70;17.00;;;;;;;2.12;93.96;99714.80;103279;1294;22476;-75
2022/11/27 06:23:46;;;;;;;30.30;16.40;;;;;;;2.11;93.87;99711.64;103520;1286;138494;-75
2022/11/27 06:26:15;;;;;;;34.40;15.20;;;;;;;2.12;93.87;99717.09;103590;1286;24250;-75
2022/11/27 06:28:42;;;;;;;30.90;16.30;;;;;;;2.13;93.86;99716.66;103110;1311;138340;-75
2022/11/27 06:31:12;;;;;;;31.80;15.90;;;;;;;2.14;93.93;99717.45;103170;1312;25709;-75
2022/11/27 06:33:39;;;;;;;31.80;16.00;;;;;;;2.12;93.89;99713.48;103112;1288;24474;-75
2022/11/27 06:36:07;;;;;;;31.60;15.90;;;;;;;2.13;94.01;99710.81;103510;1301;138196;-75
2022/11/27 06:38:35;;;;;;;33.20;15.60;;;;;;;2.13;94.20;99707.32;104082;1285;22517;-75
2022/11/27 06:41:17;;;;;;;28.70;15.70;;;;;;;2.15;94.02;99705.74;103956;1293;138867;-75
2022/11/27 06:43:45;;;;;;;31.40;16.20;;;;;;;2.16;94.27;99703.40;103476;1287;23423;-75
2022/11/27 06:46:14;;;;;;;27.70;16.70;;;;;;;2.19;94.17;99709.93;103740;1301;22497;-74
2022/11/27 06:48:42;;;;;;;31.70;16.90;;;;;;;2.19;94.01;99705.46;103666;1284;139137;-75
2022/11/27 06:51:13;;;;;;;36.40;17.60;;;;;;;2.18;93.98;99709.27;103323;1302;22492;-75
2022/11/27 06:53:41;;;;;;;32.40;17.40;;;;;;;2.17;93.68;99710.09;103185;1298;138930;-75
2022/11/27 06:56:13;;;;;;;31.20;16.90;;;;;;;2.16;93.78;99708.32;103349;1287;24452;-75
2022/11/27 06:58:40;;;;;;;34.40;17.30;;;;;;;2.16;93.89;99707.23;103133;1287;138279;-75
2022/11/27 07:01:13;;;;;;;31.50;17.40;;;;;;;2.16;94.08;99707.05;104836;1289;24272;-75
2022/11/27 07:03:40;;;;;;;34.20;19.40;;;;;;;2.17;94.09;99705.15;104538;1288;22489;-75
2022/11/27 07:06:12;;;;;;;38.90;21.30;;;;;;;2.19;94.31;99701.50;104149;1295;139662;-75
2022/11/27 07:08:38;;;;;;;39.10;20.80;;;;;;;2.20;94.10;99707.66;103888;1292;22904;-75
2022/11/27 07:11:09;;;;;;;38.30;20.30;;;;;;;2.20;93.87;99707.73;104088;1288;138739;-75
2022/11/27 07:13:36;;;;;;;38.20;21.30;;;;;;;2.20;93.94;99702.63;104568;1291;25299;-75
2022/11/27 07:16:06;;;;;;;36.90;20.30;;;;;;;2.23;94.12;99698.02;103084;1298;22486;-75
2022/11/27 07:18:42;;;;;;;41.10;21.60;;;;;;;2.25;94.38;99696.86;103152;1285;138447;-75
2022/11/27 07:21:09;;;;;;;38.40;21.40;;;;;;;2.27;94.20;99702.76;103048;1295;25290;-75
2022/11/27 07:23:37;;;;;;;43.10;24.30;;;;;;;2.29;94.27;99707.06;103151;1294;139208;-75
2022/11/27 07:26:12;;;;;;;39.40;22.80;;;;;;;2.32;94.05;99710.60;103115;1303;22890;-75
2022/11/27 07:28:42;;;;;;;36.00;20.90;;;;;;;2.34;94.09;99708.92;103095;1312;138540;-75
2022/11/27 07:31:11;;;;;;;34.60;18.80;;;;;;;2.38;94.26;99707.97;103327;1304;22196;-75
2022/11/27 07:33:38;;;;;;;34.20;17.50;;;;;;;2.39;94.10;99710.67;103299;1303;22532;-75
2022/11/27 07:36:10;;;;;;;31.00;16.30;;;;;;;2.40;93.94;99721.50;103362;1289;138406;-75
2022/11/27 07:38:37;;;;;;;27.70;15.50;;;;;;;2.42;93.81;99719.49;103110;1310;25449;-75
2022/11/27 07:41:05;;;;;;;27.40;14.90;;;;;;;2.43;93.55;99719.73;103248;1310;138386;-75
2022/11/27 07:43:33;;;;;;;27.90;14.20;;;;;;;2.45;93.72;99716.74;103351;1285;25311;-75
2022/11/27 07:46:12;;;;;;;27.50;15.00;;;;;;;2.47;93.81;99711.85;103404;1285;22520;-74
2022/11/27 07:48:40;;;;;;;28.10;13.90;;;;;;;2.48;93.56;99711.89;103436;1285;138109;-75
2022/11/27 07:51:09;;;;;;;27.10;14.60;;;;;;;2.49;93.62;99708.25;103470;1279;22487;-75
2022/11/27 07:53:40;;;;;;;23.60;13.30;;;;;;;2.50;93.65;99717.67;103219;1295;138132;-75
2022/11/27 07:56:10;;;;;;;25.60;12.90;;;;;;;2.52;93.77;99716.20;103330;1295;25376;-75
2022/11/27 07:58:37;;;;;;;24.80;12.60;;;;;;;2.54;93.73;99718.63;103324;1310;138186;-75
2022/11/27 08:01:12;;;;;;;27.00;13.90;;;;;;;2.56;93.68;99719.21;103391;1288;23011;-75
2022/11/27 08:03:42;;;;;;;27.00;12.70;;;;;;;2.57;93.73;99724.60;103114;1295;22890;-75
2022/11/27 08:06:14;;;;;;;28.60;15.60;;;;;;;2.58;93.50;99723.58;103095;1288;138129;-75
2022/11/27 08:08:41;;;;;;;27.40;13.90;;;;;;;2.59;93.38;99723.83;103854;1313;24305;-75
2022/11/27 08:11:28;;;;;;;28.00;14.20;;;;;;;2.62;93.81;99727.98;104087;1287;139412;-75
2022/11/27 08:14:01;;;;;;;29.20;14.00;;;;;;;2.65;93.56;99724.80;103734;1312;24365;-75
2022/11/27 08:16:29;;;;;;;26.10;14.80;;;;;;;2.67;93.66;99723.17;105994;1295;22183;-75
2022/11/27 08:18:57;;;;;;;31.70;15.50;;;;;;;2.70;93.57;99720.52;104003;1311;24793;-75
2022/11/27 08:21:24;;;;;;;29.50;14.80;;;;;;;2.71;93.46;99716.62;103403;1285;22490;-75
2022/11/27 08:23:51;;;;;;;29.00;15.50;;;;;;;2.74;93.38;99717.73;103126;1286;139269;-75
2022/11/27 08:26:19;;;;;;;30.10;15.10;;;;;;;2.75;93.25;99716.26;103475;1292;22490;-75
2022/11/27 08:28:46;;;;;;;28.50;15.80;;;;;;;2.78;93.82;99713.73;103461;1285;138577;-75
2022/11/27 08:31:14;;;;;;;31.80;16.60;;;;;;;2.83;93.96;99712.17;103483;1312;22590;-75
2022/11/27 08:33:40;;;;;;;29.00;15.70;;;;;;;2.87;93.64;99705.13;103343;1294;22475;-74
2022/11/27 08:36:08;;;;;;;31.30;16.40;;;;;;;2.92;93.74;99708.04;103337;1313;138538;-75
2022/11/27 08:38:35;;;;;;;32.50;16.90;;;;;;;2.93;93.44;99709.13;103880;1297;22479;-75
2022/11/27 08:41:04;;;;;;;35.60;19.50;;;;;;;2.95;93.25;99711.64;103068;1295;139114;-75
2022/11/27 08:43:31;;;;;;;38.40;21.10;;;;;;;2.96;93.32;99714.16;103691;1294;25365;-75
2022/11/27 08:46:01;;;;;;;39.30;21.10;;;;;;;3.00;93.56;99715.88;103192;1304;22604;-74
2022/11/27 08:48:28;;;;;;;43.30;21.30;;;;;;;3.04;93.07;99716.19;103340;1302;138120;-75
2022/11/27 08:50:55;;;;;;;44.10;21.50;;;;;;;3.07;92.91;99712.12;103113;1301;22570;-75
2022/11/27 08:53:22;;;;;;;44.60;20.40;;;;;;;3.11;92.79;99701.15;103134;1293;138199;-75
2022/11/27 08:55:49;;;;;;;41.90;20.30;;;;;;;3.14;92.76;99703.46;103353;1313;22474;-75
2022/11/27 08:58:16;;;;;;;35.80;18.20;;;;;;;3.18;92.72;99705.96;103203;1298;22485;-75
2022/11/27 09:00:43;;;;;;;34.80;18.40;;;;;;;3.21;92.54;99708.05;102990;1311;138145;-75
2022/11/27 09:03:11;;;;;;;36.80;19.30;;;;;;;3.25;92.84;99713.23;103071;1285;25093;-75
2022/11/27 09:05:42;;;;;;;35.40;17.10;;;;;;;3.29;92.72;99712.55;103071;1295;138248;-75
2022/11/27 09:08:12;;;;;;;35.90;18.60;;;;;;;3.32;92.23;99711.17;103431;1303;22491;-75
2022/11/27 09:10:39;;;;;;;26.30;15.60;;;;;;;3.33;91.96;99705.92;103036;1313;138142;-75
2022/11/27 09:13:06;;;;;;;34.90;17.50;;;;;;;3.32;91.69;99714.77;103275;1300;25355;-74
2022/11/27 09:15:32;;;;;;;36.90;18.00;;;;;;;3.33;91.72;99712.69;103517;1313;22601;-75
2022/11/27 09:17:59;;;;;;;35.00;17.10;;;;;;;3.37;92.10;99709.89;104291;1312;138230;-75
2022/11/27 09:20:26;;;;;;;30.50;17.50;;;;;;;3.42;91.83;99704.39;103431;1308;22489;-75
2022/11/27 09:22:53;;;;;;;31.20;17.00;;;;;;;3.45;91.98;99704.02;103970;1287;140826;-75
2022/11/27 09:25:20;;;;;;;34.20;18.10;;;;;;;3.57;93.06;99711.33;104302;1287;22805;-75
2022/11/27 09:27:47;;;;;;;33.60;18.60;;;;;;;3.62;91.40;99711.39;105563;1286;22212;-75
2022/11/27 09:30:14;;;;;;;35.00;16.90;;;;;;;3.63;90.99;99711.10;104095;1288;138868;-75
2022/11/27 09:32:41;;;;;;;33.10;19.10;;;;;;;3.66;90.82;99710.41;104217;1289;22473;-75
2022/11/27 09:35:08;;;;;;;28.60;15.70;;;;;;;3.70;90.99;99709.80;104546;1289;138893;-75
2022/11/27 09:37:35;;;;;;;29.60;15.40;;;;;;;3.75;91.18;99713.88;104110;1288;25213;-75
2022/11/27 09:40:02;;;;;;;34.10;16.40;;;;;;;3.79;90.95;99716.29;103982;1295;22489;-75
2022/11/27 09:42:39;;;;;;;30.90;16.60;;;;;;;3.81;90.20;99716.80;103943;1287;138295;-75
2022/11/27 09:45:13;;;;;;;31.60;16.70;;;;;;;3.79;89.60;99720.38;103627;1296;22608;-75
2022/11/27 09:48:02;;;;;;;30.00;15.50;;;;;;;3.75;89.37;99715.24;104131;1285;138252;-75
2022/11/27 09:50:34;;;;;;;30.30;16.80;;;;;;;3.74;89.30;99707.37;105052;1288;25412;-75
2022/11/27 09:53:19;;;;;;;27.60;14.80;;;;;;;3.72;88.82;99707.95;104493;1294;138712;-75
2022/11/27 09:55:50;;;;;;;27.50;13.60;;;;;;;3.67;88.31;99709.04;103337;1305;22495;-75
2022/11/27 09:58:42;;;;;;;29.70;15.00;;;;;;;3.63;88.55;99705.83;103695;1304;23184;-75
2022/11/27 10:01:15;;;;;;;26.90;14.40;;;;;;;3.63;88.70;99701.55;103313;1311;24262;-75
2022/11/27 10:03:45;;;;;;;28.90;14.80;;;;;;;3.60;88.52;99701.70;104128;1286;22570;-75
2022/11/27 10:06:32;;;;;;;25.90;15.00;;;;;;;3.58;88.64;99700.77;104443;1292;138965;-75
2022/11/27 10:09:32;;;;;;;28.50;14.10;;;;;;;3.58;88.23;99700.11;103804;1292;24252;-75
2022/11/27 10:12:22;;;;;;;31.40;16.20;;;;;;;3.57;88.46;99693.41;103871;1313;138662;-75
2022/11/27 10:15:05;;;;;;;27.90;14.40;;;;;;;3.60;88.72;99688.73;103804;1288;22471;-74
2022/11/27 10:17:39;;;;;;;30.00;14.70;;;;;;;3.64;88.80;99684.79;104316;1294;138157;-74
2022/11/27 10:20:17;;;;;;;27.60;15.10;;;;;;;3.65;88.86;99678.69;103483;1291;22492;-74
2022/11/27 10:22:56;;;;;;;24.70;14.40;;;;;;;3.71;89.07;99681.42;103045;1310;138379;-74
2022/11/27 10:25:44;;;;;;;29.10;14.80;;;;;;;3.76;88.84;99684.51;103222;1310;22471;-74
2022/11/27 10:28:41;;;;;;;26.20;14.80;;;;;;;3.76;88.08;99679.15;103303;1310;23101;-75
2022/11/27 10:31:40;;;;;;;25.10;13.50;;;;;;;3.75;88.05;99676.83;103270;1292;22471;-75
2022/11/27 10:34:18;;;;;;;27.80;14.90;;;;;;;3.79;88.27;99669.91;103142;1313;22499;-75
2022/11/27 10:36:49;;;;;;;24.20;13.00;;;;;;;3.79;87.91;99668.00;103462;1287;138155;-74
2022/11/27 10:39:39;;;;;;;25.70;13.70;;;;;;;3.78;87.52;99674.56;103452;1302;22503;-75
2022/11/27 10:42:16;;;;;;;25.50;13.50;;;;;;;3.77;87.79;99673.36;103324;1310;138089;-75
2022/11/27 10:44:54;;;;;;;25.40;13.70;;;;;;;3.78;87.88;99664.09;103217;1294;22494;-75
2022/11/27 10:47:25;;;;;;;25.80;14.50;;;;;;;3.79;87.58;99662.45;103221;1309;138482;-75
2022/11/27 10:49:54;;;;;;;26.30;14.30;;;;;;;3.81;87.84;99658.05;103279;1294;22520;-75
2022/11/27 10:52:24;;;;;;;27.50;14.00;;;;;;;3.87;88.08;99661.21;103205;1309;24474;-75
2022/11/27 10:55:02;;;;;;;27.30;14.50;;;;;;;3.92;88.01;99662.05;102962;1298;138149;-75
2022/11/27 10:57:37;;;;;;;28.10;14.80;;;;;;;3.96;88.16;99662.84;103004;1313;22701;-75
2022/11/27 11:00:13;;;;;;;29.00;15.40;;;;;;;4.01;88.11;99657.04;103238;1311;138267;-75
2022/11/27 11:02:41;;;;;;;34.60;16.00;;;;;;;4.03;87.77;99651.88;103082;1285;22496;-75
2022/11/27 11:05:22;;;;;;;28.30;14.90;;;;;;;4.03;87.54;99651.00;103474;1296;139286;-75
2022/11/27 11:08:04;;;;;;;25.20;15.20;;;;;;;4.03;87.45;99651.13;103038;1298;22477;-75
2022/11/27 11:11:02;;;;;;;31.30;16.10;;;;;;;4.05;87.59;99651.05;103983;1292;22514;-75
2022/11/27 11:13:39;;;;;;;26.10;14.40;;;;;;;4.07;87.22;99644.79;103897;1284;23936;-75
2022/11/27 11:16:11;;;;;;;28.80;14.80;;;;;;;4.05;87.11;99637.71;103399;1292;22561;-75
2022/11/27 11:18:50;;;;;;;27.60;14.20;;;;;;;4.06;87.27;99631.88;104766;1307;138628;-75
2022/11/27 11:21:18;;;;;;;32.20;16.60;;;;;;;4.08;87.12;99631.70;103979;1310;22557;-75
2022/11/27 11:24:06;;;;;;;30.80;15.90;;;;;;;4.11;87.30;99632.06;103533;1292;138501;-75
2022/11/27 11:26:49;;;;;;;31.10;16.70;;;;;;;4.14;87.38;99627.20;103458;1288;25386;-75
2022/11/27 11:29:39;;;;;;;32.50;16.60;;;;;;;4.21;87.90;99629.33;103578;1292;138290;-75
2022/11/27 11:32:18;;;;;;;30.00;15.00;;;;;;;4.26;87.89;99626.95;103448;1302;22829;-75
2022/11/27 11:35:07;;;;;;;29.20;14.80;;;;;;;4.28;87.67;99623.10;103192;1307;24055;-75